Time;durP1;ratioP1;P1;durP2;ratioP2;P2;SDS_P1;SDS_P2;PMS_P1;PMS_P2;Temp;Humidity;BMP_temperature;BMP_pressure;BME280_temperature;BME280_humidity;BME280_pressure;Samples;Min_cycle;Max_cycle;Signal;HPM_P1;HPM_P2
2022/04/30 00:00:00;;;;;;;12.32;7.88;;;6.80;99.90;;;;;;5061509;28;20525;-39
2022/04/30 00:02:27;;;;;;;12.50;8.10;;;6.80;99.90;;;;;;5064435;28;20044;-41
2022/04/30 00:04:54;;;;;;;17.70;9.75;;;6.70;99.90;;;;;;5069875;28;20054;-39
2022/04/30 00:07:21;;;;;;;14.60;9.10;;;6.70;99.90;;;;;;5062244;28;20072;-42
2022/04/30 00:09:48;;;;;;;15.88;8.27;;;6.70;99.90;;;;;;5066277;28;20124;-42
2022/04/30 00:12:16;;;;;;;15.60;9.18;;;6.60;99.90;;;;;;5062812;28;20052;-36
2022/04/30 00:14:43;;;;;;;15.18;8.27;;;6.60;99.90;;;;;;5066318;28;20045;-40
2022/04/30 00:17:10;;;;;;;20.13;8.50;;;6.60;99.90;;;;;;5064031;28;20053;-40
2022/04/30 00:19:37;;;;;;;11.05;7.25;;;6.60;99.90;;;;;;5064002;28;20045;-40
2022/04/30 00:22:04;;;;;;;13.55;7.65;;;6.60;99.90;;;;;;5063605;28;20049;-38
2022/04/30 00:24:31;;;;;;;14.55;7.68;;;6.60;99.90;;;;;;5064265;28;20059;-38
2022/04/30 00:26:59;;;;;;;10.43;6.97;;;6.60;99.90;;;;;;5070672;28;20052;-39
2022/04/30 00:29:29;;;;;;;13.68;7.97;;;6.60;99.90;;;;;;5061498;28;20400;-41
2022/04/30 00:31:55;;;;;;;10.82;6.85;;;6.60;99.90;;;;;;5059442;28;20110;-39
2022/04/30 00:34:22;;;;;;;13.57;7.75;;;6.60;99.90;;;;;;5060654;28;20063;-37
2022/04/30 00:36:49;;;;;;;13.85;6.80;;;6.50;99.90;;;;;;5066675;28;20067;-40
2022/04/30 00:39:15;;;;;;;19.42;8.40;;;6.50;99.90;;;;;;5060387;28;20062;-39
2022/04/30 00:41:42;;;;;;;11.32;7.40;;;6.60;99.90;;;;;;5062789;28;20045;-40
2022/04/30 00:44:09;;;;;;;11.98;7.35;;;6.50;99.90;;;;;;5065921;28;20385;-40
2022/04/30 00:46:37;;;;;;;12.80;7.78;;;6.50;99.90;;;;;;5066342;28;20056;-41
2022/04/30 00:49:04;;;;;;;16.90;8.15;;;6.50;99.90;;;;;;5059023;28;20041;-36
2022/04/30 00:51:30;;;;;;;12.25;8.05;;;6.50;99.90;;;;;;5063148;28;20061;-38
2022/04/30 00:53:57;;;;;;;10.77;7.22;;;6.50;99.90;;;;;;5060848;28;20060;-43
2022/04/30 00:56:26;;;;;;;9.88;6.68;;;6.50;99.90;;;;;;5070937;28;20512;-40
2022/04/30 00:58:54;;;;;;;12.90;7.05;;;6.50;99.90;;;;;;5061638;28;20465;-36
2022/04/30 01:01:20;;;;;;;13.02;7.03;;;6.40;99.90;;;;;;5059111;28;20053;-39
2022/04/30 01:03:48;;;;;;;13.48;7.45;;;6.40;99.90;;;;;;5064041;28;20044;-38
2022/04/30 01:06:15;;;;;;;11.52;7.47;;;6.40;99.90;;;;;;5067959;28;20053;-39
2022/04/30 01:08:42;;;;;;;14.00;7.97;;;6.40;99.90;;;;;;5067775;28;20439;-40
2022/04/30 01:11:08;;;;;;;9.95;7.00;;;6.40;99.90;;;;;;5063677;28;20051;-41
2022/04/30 01:13:36;;;;;;;13.00;7.72;;;6.30;99.80;;;;;;5066976;28;20049;-41
2022/04/30 01:16:03;;;;;;;13.40;7.68;;;6.30;99.80;;;;;;5074669;28;20151;-40
2022/04/30 01:18:30;;;;;;;15.32;7.70;;;6.30;99.70;;;;;;5063445;28;20054;-38
2022/04/30 01:21:03;;;;;;;12.90;7.53;;;6.20;99.90;;;;;;5062832;28;20148;-40
2022/04/30 01:23:31;;;;;;;10.23;7.00;;;6.20;99.80;;;;;;5071114;28;20041;-39
2022/04/30 01:25:58;;;;;;;10.43;6.72;;;6.20;99.70;;;;;;5069016;28;20048;-39
2022/04/30 01:28:25;;;;;;;13.25;7.50;;;6.20;99.70;;;;;;5067627;28;20099;-40
2022/04/30 01:30:51;;;;;;;10.52;6.78;;;6.20;99.60;;;;;;5072655;28;20040;-41
2022/04/30 01:38:48;;;;;;;11.32;7.43;;;6.10;99.40;;;;;;5073948;28;20059;-42
2022/04/30 01:41:15;;;;;;;12.82;7.25;;;6.10;99.50;;;;;;5063732;28;20045;-41
2022/04/30 01:43:42;;;;;;;12.73;7.20;;;6.10;99.50;;;;;;5066659;28;20481;-41
2022/04/30 01:46:09;;;;;;;12.10;7.70;;;6.00;99.50;;;;;;5062982;28;20045;-38
2022/04/30 01:48:36;;;;;;;13.00;7.43;;;6.00;99.50;;;;;;5067964;28;20056;-37
2022/04/30 01:51:02;;;;;;;14.32;7.95;;;6.00;99.60;;;;;;5073540;28;20495;-41
2022/04/30 01:53:30;;;;;;;12.25;7.20;;;6.00;99.70;;;;;;5067330;28;20408;-40
2022/04/30 01:55:59;;;;;;;15.38;8.60;;;6.00;99.80;;;;;;5061577;28;20075;-41
2022/04/30 01:58:26;;;;;;;13.32;7.85;;;6.00;99.80;;;;;;5068857;28;20056;-39
2022/04/30 02:00:54;;;;;;;13.90;7.38;;;6.00;99.90;;;;;;5069066;28;20508;-42
2022/04/30 02:03:21;;;;;;;11.60;6.82;;;5.90;99.80;;;;;;5074170;28;20040;-39
2022/04/30 02:05:48;;;;;;;13.55;7.10;;;5.90;99.70;;;;;;5073432;28;20119;-42
2022/04/30 02:08:18;;;;;;;12.98;7.45;;;5.90;99.70;;;;;;5069149;28;20056;-39
2022/04/30 02:10:44;;;;;;;11.88;7.80;;;5.90;99.70;;;;;;5062072;28;20102;-40
2022/04/30 02:13:13;;;;;;;14.57;7.60;;;5.90;99.70;;;;;;5069841;28;20519;-41
2022/04/30 02:15:40;;;;;;;18.33;8.07;;;5.90;99.70;;;;;;5068421;28;20089;-41
2022/04/30 02:18:07;;;;;;;12.63;7.63;;;5.90;99.70;;;;;;5063828;28;21345;-42
2022/04/30 02:20:37;;;;;;;14.65;7.95;;;5.80;99.80;;;;;;5072239;28;20045;-40
2022/04/30 02:23:04;;;;;;;12.02;7.82;;;5.80;99.90;;;;;;5060738;28;20083;-41
2022/04/30 02:25:31;;;;;;;12.00;7.22;;;5.80;99.90;;;;;;5066302;28;20052;-39
2022/04/30 02:27:59;;;;;;;13.77;8.30;;;5.80;99.90;;;;;;5071510;28;20146;-40
2022/04/30 02:30:27;;;;;;;11.25;7.03;;;5.90;99.90;;;;;;5059575;28;20072;-36
2022/04/30 02:32:55;;;;;;;11.52;8.07;;;5.80;99.90;;;;;;5064046;28;20041;-37
2022/04/30 02:35:24;;;;;;;10.85;7.78;;;5.80;99.90;;;;;;5065015;28;20044;-40
2022/04/30 02:37:52;;;;;;;11.55;7.18;;;5.80;99.90;;;;;;5067905;28;20048;-40
2022/04/30 02:40:20;;;;;;;15.52;8.88;;;5.80;99.90;;;;;;5065277;28;20480;-41
2022/04/30 02:42:47;;;;;;;11.93;7.38;;;5.80;99.90;;;;;;5071620;28;20036;-41
2022/04/30 02:45:14;;;;;;;15.15;7.25;;;5.80;99.90;;;;;;5063328;28;20053;-40
2022/04/30 02:47:42;;;;;;;11.52;7.45;;;5.80;99.90;;;;;;5062227;28;20403;-39
2022/04/30 02:50:10;;;;;;;12.32;7.90;;;5.80;99.90;;;;;;5065274;28;20056;-41
2022/04/30 02:52:37;;;;;;;13.90;7.07;;;5.80;99.90;;;;;;5066626;28;20052;-42
2022/04/30 02:55:05;;;;;;;10.23;7.22;;;5.80;99.90;;;;;;5072814;28;20155;-39
2022/04/30 02:59:53;;;;;;;13.15;8.10;;;5.80;99.90;;;;;;5067767;28;20045;-40
2022/04/30 03:00:28;;;;;;;15.85;8.23;;;5.80;99.90;;;;;;5064107;28;20045;-41
2022/04/30 03:02:56;;;;;;;12.07;7.78;;;5.70;99.90;;;;;;5071739;28;20063;-39
2022/04/30 03:05:23;;;;;;;16.30;8.07;;;5.80;99.90;;;;;;5062722;28;20059;-41
2022/04/30 03:07:51;;;;;;;15.90;7.03;;;5.70;99.90;;;;;;5063319;28;20389;-40
2022/04/30 03:10:17;;;;;;;11.98;7.78;;;5.80;99.90;;;;;;5065076;28;20086;-42
2022/04/30 03:12:44;;;;;;;15.10;8.50;;;5.80;99.90;;;;;;5071710;28;20124;-42
2022/04/30 03:15:11;;;;;;;13.20;7.72;;;5.80;99.90;;;;;;5055480;28;20053;-38
2022/04/30 03:23:08;;;;;;;12.20;7.57;;;5.80;99.90;;;;;;5055347;28;20045;-41
2022/04/30 03:25:35;;;;;;;15.25;8.05;;;5.80;99.90;;;;;;5063051;28;20049;-41
2022/04/30 03:28:01;;;;;;;16.45;8.23;;;5.80;99.90;;;;;;5068657;28;20053;-37
2022/04/30 03:30:28;;;;;;;14.55;8.18;;;5.80;99.90;;;;;;5059652;28;20051;-39
2022/04/30 03:32:55;;;;;;;13.23;7.03;;;5.70;99.90;;;;;;5068639;28;20098;-40
2022/04/30 03:35:23;;;;;;;10.43;7.50;;;5.80;99.90;;;;;;5066617;28;20409;-41
2022/04/30 03:37:50;;;;;;;12.63;8.07;;;5.80;99.90;;;;;;5066190;28;20064;-43
2022/04/30 03:40:17;;;;;;;12.82;7.32;;;5.80;99.90;;;;;;5062415;28;20502;-41
2022/04/30 03:42:44;;;;;;;12.23;7.75;;;5.80;99.90;;;;;;5064556;28;20123;-42
2022/04/30 03:45:11;;;;;;;14.63;8.25;;;5.80;99.90;;;;;;5069290;28;20056;-40
2022/04/30 03:47:38;;;;;;;14.18;7.80;;;5.80;99.90;;;;;;5062230;28;20048;-41
2022/04/30 03:50:06;;;;;;;13.93;7.78;;;5.80;99.90;;;;;;5071274;28;20051;-37
2022/04/30 03:52:34;;;;;;;14.20;7.53;;;5.80;99.90;;;;;;5056876;28;20052;-43
2022/04/30 03:55:00;;;;;;;13.20;7.97;;;5.80;99.90;;;;;;5069476;28;20075;-41
2022/04/30 03:57:28;;;;;;;20.52;9.25;;;5.80;99.90;;;;;;5068574;28;20056;-43
2022/04/30 03:59:55;;;;;;;13.90;8.70;;;5.80;99.90;;;;;;5061863;28;20045;-40
2022/04/30 04:02:23;;;;;;;14.93;8.90;;;5.80;99.90;;;;;;5055329;28;20469;-42
2022/04/30 04:04:52;;;;;;;14.30;8.20;;;5.70;99.90;;;;;;5062657;28;20049;-40
2022/04/30 04:07:18;;;;;;;15.73;9.40;;;5.70;99.90;;;;;;5062933;28;20044;-40
2022/04/30 04:09:46;;;;;;;10.90;7.63;;;5.70;99.90;;;;;;5071658;28;20507;-40
2022/04/30 04:12:13;;;;;;;11.80;8.68;;;5.70;99.90;;;;;;5071157;28;20128;-39
2022/04/30 04:17:39;;;;;;;13.60;7.72;;;5.70;99.90;;;;;;5068672;28;20389;-39
2022/04/30 04:20:06;;;;;;;;;;;5.70;99.90;;;;;;5095964;28;20049;-40
2022/04/30 04:22:33;;;;;;;13.88;7.18;;;5.70;99.90;;;;;;5058800;28;19991;-39
2022/04/30 04:27:46;;;;;;;11.20;7.13;;;5.80;99.90;;;;;;5065080;28;20049;-35
2022/04/30 04:30:12;;;;;;;12.65;8.48;;;5.80;99.90;;;;;;5068847;28;20053;-37
2022/04/30 04:32:39;;;;;;;10.73;7.40;;;5.80;99.90;;;;;;5068258;28;20404;-39
2022/04/30 04:35:07;;;;;;;11.23;7.85;;;5.80;99.90;;;;;;5063974;28;20041;-38
2022/04/30 04:37:33;;;;;;;13.15;8.02;;;5.80;99.90;;;;;;5065960;28;20049;-38
2022/04/30 04:40:01;;;;;;;17.88;8.75;;;5.80;99.90;;;;;;5064009;28;20052;-40
2022/04/30 04:42:28;;;;;;;17.10;8.82;;;6.00;99.90;;;;;;5065151;28;20400;-38
2022/04/30 04:44:55;;;;;;;13.23;7.97;;;5.80;99.90;;;;;;5064430;28;20055;-39
2022/04/30 04:47:21;;;;;;;12.02;7.82;;;5.80;99.90;;;;;;5070857;28;20052;-42
2022/04/30 04:49:48;;;;;;;10.73;6.97;;;5.90;99.90;;;;;;5072589;28;20055;-40
2022/04/30 04:52:15;;;;;;;14.00;8.05;;;5.90;99.90;;;;;;5067476;28;20053;-41
2022/04/30 04:54:41;;;;;;;13.00;7.28;;;5.90;99.90;;;;;;5073242;28;20131;-40
2022/04/30 04:57:09;;;;;;;11.00;7.90;;;6.00;99.90;;;;;;5064248;28;20408;-41
2022/04/30 04:59:36;;;;;;;13.90;9.30;;;6.00;99.90;;;;;;5066719;28;20080;-40
2022/04/30 05:02:03;;;;;;;14.40;7.85;;;6.00;99.90;;;;;;5062864;28;20075;-39
2022/04/30 05:04:31;;;;;;;12.05;8.40;;;6.00;99.90;;;;;;5065448;28;20045;-38
2022/04/30 05:06:58;;;;;;;17.83;9.27;;;6.10;99.90;;;;;;5067222;28;20512;-42
2022/04/30 05:09:26;;;;;;;13.88;8.82;;;6.10;99.90;;;;;;5070249;28;20095;-40
2022/04/30 05:11:52;;;;;;;13.32;8.02;;;6.10;99.90;;;;;;5071706;28;20054;-41
2022/04/30 05:14:20;;;;;;;11.93;7.78;;;6.20;99.90;;;;;;5065788;28;20076;-39
2022/04/30 05:16:47;;;;;;;18.08;7.72;;;6.20;99.90;;;;;;5071402;28;20048;-39
2022/04/30 05:19:14;;;;;;;11.68;8.13;;;6.20;99.90;;;;;;5065443;28;20049;-39
2022/04/30 05:21:41;;;;;;;11.48;7.72;;;6.30;99.90;;;;;;5069826;28;20050;-38
2022/04/30 05:24:08;;;;;;;12.52;7.22;;;6.30;99.90;;;;;;5068351;28;20733;-39
2022/04/30 05:26:34;;;;;;;13.05;8.57;;;6.40;99.90;;;;;;5071795;28;20042;-41
2022/04/30 05:29:01;;;;;;;14.70;9.43;;;6.40;99.90;;;;;;5066522;28;20059;-41
2022/04/30 05:31:29;;;;;;;13.48;9.30;;;6.50;99.90;;;;;;5073434;28;20049;-42
2022/04/30 05:33:56;;;;;;;13.40;8.82;;;6.50;99.90;;;;;;5071452;28;20067;-40
2022/04/30 05:36:22;;;;;;;17.42;9.35;;;6.60;99.90;;;;;;5073030;28;20095;-42
2022/04/30 05:38:51;;;;;;;16.63;9.05;;;6.60;99.90;;;;;;5068552;28;20045;-39
2022/04/30 05:41:17;;;;;;;16.25;9.18;;;6.70;99.90;;;;;;5063453;28;20082;-40
2022/04/30 05:43:44;;;;;;;15.27;10.00;;;6.70;99.90;;;;;;5075922;28;20496;-41
2022/04/30 05:46:12;;;;;;;20.25;10.38;;;6.80;99.90;;;;;;5065222;28;20062;-39
2022/04/30 05:48:40;;;;;;;18.90;9.60;;;6.80;99.90;;;;;;5061844;28;20052;-39
2022/04/30 05:51:07;;;;;;;14.38;8.88;;;6.90;99.90;;;;;;5067141;28;20082;-42
2022/04/30 05:53:33;;;;;;;13.60;9.55;;;7.00;99.90;;;;;;5070193;28;20044;-42
2022/04/30 05:56:00;;;;;;;12.88;8.93;;;7.00;99.90;;;;;;5065329;28;20135;-39
2022/04/30 05:58:27;;;;;;;13.02;8.88;;;7.10;99.90;;;;;;5064306;28;20095;-38
2022/04/30 06:00:53;;;;;;;15.38;9.75;;;7.10;99.90;;;;;;5065395;28;20076;-41
2022/04/30 06:03:20;;;;;;;14.60;9.30;;;7.20;99.90;;;;;;5063716;28;20386;-41
2022/04/30 06:05:48;;;;;;;19.33;9.48;;;7.20;99.90;;;;;;5069973;28;20041;-41
2022/04/30 06:08:15;;;;;;;15.18;9.35;;;7.30;99.90;;;;;;5069276;28;20477;-40
2022/04/30 06:10:41;;;;;;;13.82;8.55;;;7.40;99.90;;;;;;5062207;28;20052;-41
2022/04/30 06:13:08;;;;;;;20.65;9.55;;;7.40;99.90;;;;;;5069290;28;20469;-41
2022/04/30 06:15:35;;;;;;;16.85;9.25;;;7.50;99.90;;;;;;5069866;28;20048;-40
2022/04/30 06:18:01;;;;;;;18.08;9.82;;;7.50;99.90;;;;;;5064613;28;20044;-41
2022/04/30 06:20:28;;;;;;;14.48;9.50;;;7.70;99.90;;;;;;5059605;28;20872;-41
2022/04/30 06:22:56;;;;;;;10.88;8.90;;;7.70;99.90;;;;;;5062806;28;20045;-39
2022/04/30 06:25:23;;;;;;;15.50;8.20;;;7.80;99.90;;;;;;5063668;28;20397;-40
2022/04/30 06:27:49;;;;;;;16.83;9.05;;;7.90;99.90;;;;;;5065455;28;20408;-37
2022/04/30 06:30:16;;;;;;;12.25;8.80;;;8.00;99.90;;;;;;5072325;28;20056;-39
2022/04/30 06:32:43;;;;;;;13.40;8.13;;;8.00;99.90;;;;;;5062996;28;20045;-42
2022/04/30 06:35:09;;;;;;;14.45;9.57;;;8.10;99.90;;;;;;5066363;28;20480;-41
2022/04/30 06:37:36;;;;;;;21.38;9.82;;;8.20;99.90;;;;;;5064699;28;20059;-41
2022/04/30 06:40:06;;;;;;;16.02;9.18;;;8.20;99.90;;;;;;5070388;28;20052;-39
2022/04/30 06:42:40;;;;;;;20.42;9.90;;;8.30;99.90;;;;;;5062185;28;20051;-43
2022/04/30 06:45:08;;;;;;;18.23;10.18;;;8.40;99.90;;;;;;5055401;28;20041;-43
2022/04/30 06:47:35;;;;;;;16.33;9.88;;;8.40;99.90;;;;;;5068409;28;20131;-41
2022/04/30 06:50:02;;;;;;;15.15;9.05;;;8.50;99.90;;;;;;5065583;28;20543;-42
2022/04/30 06:52:28;;;;;;;17.90;9.35;;;8.50;99.90;;;;;;5062225;28;20052;-41
2022/04/30 06:57:42;;;;;;;17.58;8.75;;;8.70;99.90;;;;;;5060369;28;20409;-43
2022/04/30 07:02:51;;;;;;;13.32;8.38;;;8.90;99.90;;;;;;5070109;28;20071;-42
2022/04/30 07:05:18;;;;;;;18.98;8.43;;;8.90;99.90;;;;;;5060159;28;20045;-43
2022/04/30 07:07:44;;;;;;;15.85;7.80;;;9.00;99.90;;;;;;5059667;28;20052;-42
2022/04/30 07:10:11;;;;;;;13.18;7.72;;;9.10;99.90;;;;;;5064557;28;20059;-43
2022/04/30 07:12:38;;;;;;;11.40;7.97;;;9.30;99.90;;;;;;5064156;28;20075;-42
2022/04/30 07:15:07;;;;;;;14.20;8.07;;;9.40;99.90;;;;;;5057766;28;20056;-40
2022/04/30 07:17:34;;;;;;;17.02;7.50;;;9.50;99.90;;;;;;5066827;28;20044;-43
2022/04/30 07:20:00;;;;;;;19.17;8.25;;;9.50;99.90;;;;;;5060100;28;20037;-43
2022/04/30 07:22:27;;;;;;;19.65;7.15;;;9.60;99.90;;;;;;5060609;28;20124;-43
2022/04/30 07:24:55;;;;;;;16.60;8.35;;;9.70;99.90;;;;;;5069539;28;20051;-43
2022/04/30 07:27:22;;;;;;;14.85;7.82;;;9.80;99.90;;;;;;5053591;28;20045;-43
2022/04/30 07:29:48;;;;;;;11.13;7.20;;;9.90;99.90;;;;;;5062057;28;20044;-43
2022/04/30 07:32:16;;;;;;;11.00;7.45;;;10.00;99.90;;;;;;5060364;28;20041;-43
2022/04/30 07:34:43;;;;;;;10.95;7.25;;;10.20;99.90;;;;;;5053104;28;20469;-44
2022/04/30 07:37:12;;;;;;;14.82;7.30;;;10.30;99.90;;;;;;5064524;28;20052;-43
2022/04/30 07:39:38;;;;;;;12.43;7.40;;;10.40;99.90;;;;;;5065182;28;20511;-43
2022/04/30 07:42:06;;;;;;;17.45;7.25;;;10.40;99.90;;;;;;5060173;28;20053;-44
2022/04/30 07:44:32;;;;;;;14.18;7.78;;;10.60;99.90;;;;;;5065794;28;20047;-44
2022/04/30 07:46:59;;;;;;;13.43;7.25;;;10.60;99.90;;;;;;5063329;28;20052;-44
2022/04/30 07:49:27;;;;;;;13.88;6.32;;;10.70;99.90;;;;;;5057517;28;20044;-43
2022/04/30 07:51:55;;;;;;;11.05;6.60;;;10.80;99.90;;;;;;5066466;28;20070;-43
2022/04/30 07:54:22;;;;;;;11.20;6.68;;;10.90;99.90;;;;;;5064328;28;20139;-43
2022/04/30 07:56:52;;;;;;;14.13;6.85;;;10.90;99.90;;;;;;5072567;28;20098;-43
2022/04/30 07:59:19;;;;;;;11.52;6.55;;;11.00;99.90;;;;;;5060618;28;20123;-42
2022/04/30 08:01:45;;;;;;;14.38;5.82;;;11.10;99.90;;;;;;5060009;28;20049;-42
2022/04/30 08:04:12;;;;;;;11.20;6.75;;;11.20;99.90;;;;;;5071675;28;20063;-42
2022/04/30 08:06:40;;;;;;;11.02;6.28;;;11.30;99.90;;;;;;5072750;28;20053;-40
2022/04/30 08:09:07;;;;;;;17.02;6.55;;;11.30;99.90;;;;;;5072110;28;20048;-41
2022/04/30 08:11:33;;;;;;;14.68;6.55;;;11.40;99.90;;;;;;5068436;28;20067;-43
2022/04/30 08:14:00;;;;;;;14.82;6.53;;;11.50;99.90;;;;;;5060460;28;20047;-42
2022/04/30 08:16:27;;;;;;;18.95;6.80;;;11.60;99.90;;;;;;5063647;28;20041;-42
2022/04/30 08:18:54;;;;;;;17.92;6.53;;;11.60;99.90;;;;;;5069581;28;20408;-42
2022/04/30 08:21:21;;;;;;;11.95;6.45;;;11.70;99.90;;;;;;5103666;28;20598;-43
2022/04/30 08:23:49;;;;;;;13.82;6.38;;;11.70;99.90;;;;;;5072243;28;20040;-42
2022/04/30 08:26:16;;;;;;;15.95;7.28;;;11.70;99.90;;;;;;5070932;28;20049;-42
2022/04/30 08:28:43;;;;;;;13.70;6.55;;;11.70;99.90;;;;;;5062528;28;20053;-42
2022/04/30 08:31:09;;;;;;;13.00;6.65;;;11.70;99.90;;;;;;5064758;28;20423;-42
2022/04/30 08:33:37;;;;;;;13.82;6.07;;;11.70;99.60;;;;;;5068037;28;20067;-43
2022/04/30 08:36:05;;;;;;;16.40;6.78;;;11.70;99.50;;;;;;5056907;28;20055;-42
2022/04/30 08:38:31;;;;;;;9.48;6.65;;;11.70;99.40;;;;;;5061241;28;20055;-42
2022/04/30 08:40:59;;;;;;;12.82;6.93;;;11.70;99.50;;;;;;5061541;28;20140;-43
2022/04/30 08:43:26;;;;;;;10.85;6.35;;;11.70;99.10;;;;;;5059271;28;20401;-42
2022/04/30 08:45:53;;;;;;;15.10;6.57;;;11.70;99.20;;;;;;5065686;28;20050;-41
2022/04/30 08:48:19;;;;;;;10.75;7.15;;;11.80;99.10;;;;;;5060582;28;20052;-43
2022/04/30 08:50:48;;;;;;;13.07;7.03;;;11.80;99.10;;;;;;5062312;28;20052;-41
2022/04/30 08:53:14;;;;;;;13.25;6.65;;;11.90;99.00;;;;;;5071805;28;20528;-42
2022/04/30 08:55:41;;;;;;;11.82;6.57;;;12.00;98.90;;;;;;5060032;28;20047;-42
2022/04/30 08:58:09;;;;;;;12.82;6.88;;;12.10;98.60;;;;;;5060790;28;20511;-42
2022/04/30 09:00:40;;;;;;;16.83;6.88;;;12.20;98.50;;;;;;5062235;28;20122;-42
2022/04/30 09:03:07;;;;;;;16.73;7.40;;;12.20;98.20;;;;;;5062463;28;20052;-43
2022/04/30 09:05:35;;;;;;;12.77;6.65;;;12.30;98.10;;;;;;5068305;28;20049;-41
2022/04/30 09:08:01;;;;;;;15.68;6.93;;;12.40;97.90;;;;;;5062957;28;20044;-42
2022/04/30 09:10:30;;;;;;;13.80;7.47;;;12.50;97.80;;;;;;5068670;28;20063;-43
2022/04/30 09:13:04;;;;;;;12.18;6.55;;;12.60;97.70;;;;;;5059870;28;20052;-43
2022/04/30 09:15:33;;;;;;;13.77;6.97;;;12.80;97.60;;;;;;5066311;28;20051;-43
2022/04/30 09:18:00;;;;;;;13.27;6.65;;;13.00;97.10;;;;;;5067981;28;20049;-42
2022/04/30 09:20:27;;;;;;;14.32;6.43;;;13.10;96.70;;;;;;5062481;28;20230;-43
2022/04/30 09:22:54;;;;;;;11.27;6.25;;;13.30;96.60;;;;;;5066442;28;20132;-43
2022/04/30 09:25:20;;;;;;;14.65;5.93;;;13.60;96.30;;;;;;5061797;28;20481;-43
2022/04/30 09:27:49;;;;;;;12.73;6.57;;;13.80;95.90;;;;;;5062645;28;20466;-43
2022/04/30 09:30:17;;;;;;;16.25;6.10;;;13.90;95.30;;;;;;5065956;28;20084;-43
2022/04/30 09:32:45;;;;;;;14.10;5.75;;;13.80;95.00;;;;;;5062052;28;20063;-42
2022/04/30 09:38:03;;;;;;;9.87;5.13;;;13.90;94.30;;;;;;5067275;28;20052;-43
2022/04/30 09:40:30;;;;;;;13.85;5.40;;;13.80;94.20;;;;;;5067880;28;20056;-43
2022/04/30 09:42:57;;;;;;;10.88;5.35;;;13.80;94.00;;;;;;5071441;28;20055;-43
2022/04/30 09:45:26;;;;;;;13.20;5.43;;;13.90;94.10;;;;;;5068863;28;20438;-43
2022/04/30 09:47:54;;;;;;;9.10;4.60;;;14.10;93.90;;;;;;5068620;28;20044;-43
2022/04/30 09:55:52;;;;;;;6.78;4.50;;;14.80;92.40;;;;;;5065914;28;20049;-43
2022/04/30 09:58:22;;;;;;;6.93;4.13;;;14.70;91.70;;;;;;5067622;28;20128;-43
2022/04/30 10:00:48;;;;;;;9.63;4.53;;;14.70;90.60;;;;;;5063513;28;20102;-43
2022/04/30 10:03:16;;;;;;;8.88;4.85;;;14.60;90.80;;;;;;5065414;28;20059;-43
2022/04/30 10:05:43;;;;;;;17.90;5.35;;;14.50;90.40;;;;;;5067111;28;20058;-43
2022/04/30 10:08:10;;;;;;;9.73;5.03;;;14.40;90.50;;;;;;5062160;28;20465;-43
2022/04/30 10:10:41;;;;;;;10.18;4.97;;;14.50;90.70;;;;;;5066217;28;20083;-43
2022/04/30 10:13:10;;;;;;;;;;;14.50;90.40;;;;;;5060466;28;20049;-43
2022/04/30 10:15:39;;;;;;;9.35;4.50;;;14.50;90.40;;;;;;5065233;28;19927;-43
2022/04/30 10:18:08;;;;;;;11.93;4.60;;;14.50;90.80;;;;;;5062932;28;20060;-43
2022/04/30 10:20:36;;;;;;;9.27;4.45;;;14.60;90.60;;;;;;5061594;28;20045;-43
2022/04/30 10:23:03;;;;;;;10.10;4.60;;;14.60;90.50;;;;;;5058192;28;20051;-43
2022/04/30 10:25:33;;;;;;;8.23;4.45;;;14.70;90.10;;;;;;5060910;28;20044;-43
2022/04/30 10:28:00;;;;;;;8.68;4.35;;;14.60;88.70;;;;;;5059684;28;20070;-42
2022/04/30 10:30:27;;;;;;;10.07;4.70;;;14.40;89.10;;;;;;5065452;28;20119;-42
2022/04/30 10:33:01;;;;;;;10.63;4.57;;;14.30;89.70;;;;;;5067193;28;20581;-42
2022/04/30 10:35:36;;;;;;;7.75;4.05;;;14.20;89.50;;;;;;5061380;28;20155;-42
2022/04/30 10:38:08;;;;;;;8.68;4.25;;;14.20;90.00;;;;;;5066776;28;20072;-42
2022/04/30 10:40:39;;;;;;;17.08;5.50;;;14.10;90.30;;;;;;5064177;28;20392;-42
2022/04/30 10:43:14;;;;;;;12.80;7.50;;;14.00;90.40;;;;;;5064313;28;20435;-42
2022/04/30 10:45:41;;;;;;;13.00;5.68;;;14.00;90.70;;;;;;5065333;28;20048;-42
2022/04/30 10:48:08;;;;;;;8.85;5.15;;;14.00;90.50;;;;;;5062807;28;20134;-42
2022/04/30 10:50:36;;;;;;;7.40;4.13;;;13.90;90.40;;;;;;5063566;28;20408;-43
2022/04/30 10:53:03;;;;;;;7.72;4.47;;;13.90;90.60;;;;;;5070637;28;20053;-43
2022/04/30 10:55:29;;;;;;;7.78;4.20;;;13.80;90.80;;;;;;5066355;28;20421;-43
2022/04/30 10:57:56;;;;;;;9.82;4.00;;;13.80;90.80;;;;;;5061748;28;20130;-43
2022/04/30 11:00:23;;;;;;;7.45;3.95;;;13.80;90.60;;;;;;5070294;28;20048;-42
2022/04/30 11:02:49;;;;;;;5.93;3.47;;;13.80;90.50;;;;;;5062592;28;20048;-42
2022/04/30 11:05:19;;;;;;;9.55;3.90;;;13.70;90.50;;;;;;5070675;28;20063;-42
2022/04/30 11:07:47;;;;;;;9.52;4.25;;;13.70;90.10;;;;;;5065132;28;20504;-43
2022/04/30 11:10:14;;;;;;;4.55;3.45;;;13.60;90.10;;;;;;5061833;28;20071;-43
2022/04/30 11:12:41;;;;;;;8.20;4.10;;;13.60;90.30;;;;;;5067758;28;20139;-43
2022/04/30 11:15:09;;;;;;;7.35;4.03;;;13.60;90.30;;;;;;5055793;28;20049;-42
2022/04/30 11:17:42;;;;;;;11.57;4.68;;;13.60;90.30;;;;;;5069018;28;20044;-43
2022/04/30 11:20:10;;;;;;;5.78;4.05;;;13.60;90.10;;;;;;5067850;28;20554;-42
2022/04/30 11:22:36;;;;;;;6.55;4.20;;;13.60;90.20;;;;;;5066850;28;20140;-43
2022/04/30 11:25:05;;;;;;;8.65;3.90;;;13.50;90.30;;;;;;5067722;28;20047;-42
2022/04/30 11:27:32;;;;;;;8.55;4.03;;;13.60;90.30;;;;;;5068452;28;20058;-42
2022/04/30 11:29:59;;;;;;;8.10;4.22;;;13.50;90.00;;;;;;5067437;28;20056;-42
2022/04/30 11:32:26;;;;;;;11.35;4.90;;;13.50;90.10;;;;;;5059115;28;20559;-41
2022/04/30 11:34:54;;;;;;;9.93;4.40;;;13.50;90.10;;;;;;5058120;28;20047;-42
2022/04/30 11:37:20;;;;;;;9.73;3.95;;;13.50;90.30;;;;;;5062427;28;20044;-42
2022/04/30 11:39:47;;;;;;;8.82;4.72;;;13.60;90.40;;;;;;5064509;28;20071;-42
2022/04/30 11:42:15;;;;;;;7.30;4.30;;;13.60;90.20;;;;;;5069228;28;20135;-41
2022/04/30 11:44:42;;;;;;;7.63;4.50;;;13.60;90.00;;;;;;5069391;28;20511;-41
2022/04/30 11:47:09;;;;;;;11.02;4.22;;;13.60;90.40;;;;;;5063424;28;20055;-42
2022/04/30 11:49:36;;;;;;;8.85;4.72;;;13.60;89.50;;;;;;5063740;28;20408;-41
2022/04/30 11:52:03;;;;;;;10.40;4.30;;;13.60;89.60;;;;;;5065177;28;20052;-42
2022/04/30 11:54:30;;;;;;;6.45;4.13;;;13.70;89.80;;;;;;5068622;28;20064;-43
2022/04/30 11:56:58;;;;;;;8.15;4.78;;;13.70;89.70;;;;;;5061385;28;20507;-43
2022/04/30 11:59:34;;;;;;;11.75;4.93;;;13.70;89.20;;;;;;5061373;28;20051;-44
2022/04/30 12:02:01;;;;;;;9.35;4.32;;;13.70;89.20;;;;;;5072264;28;20114;-43
2022/04/30 12:04:32;;;;;;;14.00;6.75;;;13.70;89.40;;;;;;5062054;28;20514;-44
2022/04/30 12:06:59;;;;;;;8.90;5.80;;;13.70;89.50;;;;;;5057881;28;20071;-43
2022/04/30 12:09:31;;;;;;;10.32;5.38;;;13.70;89.60;;;;;;5059791;28;20055;-43
2022/04/30 12:11:58;;;;;;;10.35;5.25;;;13.70;90.00;;;;;;5058383;28;20866;-43
2022/04/30 12:14:25;;;;;;;13.82;6.18;;;13.70;90.00;;;;;;5070284;28;20493;-43
2022/04/30 12:16:53;;;;;;;12.15;6.00;;;13.70;90.10;;;;;;5070557;28;20052;-42
2022/04/30 12:25:00;;;;;;;11.77;5.95;;;13.80;90.40;;;;;;5058613;28;20060;-43
2022/04/30 12:27:28;;;;;;;9.35;5.82;;;13.80;90.50;;;;;;5063564;28;20041;-42
2022/04/30 12:30:05;;;;;;;9.38;5.75;;;13.80;90.30;;;;;;5069465;28;20077;-43
2022/04/30 12:32:34;;;;;;;12.43;5.97;;;13.90;90.40;;;;;;5059742;28;20142;-42
2022/04/30 12:35:01;;;;;;;8.57;5.20;;;13.90;90.30;;;;;;5065974;28;20048;-43
2022/04/30 12:37:30;;;;;;;11.32;4.90;;;13.80;90.30;;;;;;5068245;28;20055;-43
2022/04/30 12:39:57;;;;;;;9.75;5.10;;;13.80;90.20;;;;;;5062941;28;20550;-44
2022/04/30 12:42:24;;;;;;;7.43;4.72;;;13.70;89.90;;;;;;5056659;28;20056;-42
2022/04/30 12:44:51;;;;;;;12.63;5.05;;;13.60;89.50;;;;;;5065734;28;20044;-43
2022/04/30 12:47:17;;;;;;;12.23;5.35;;;13.50;89.60;;;;;;5068236;28;20044;-43
2022/04/30 12:49:45;;;;;;;9.82;5.10;;;13.40;89.60;;;;;;5063140;28;20059;-42
2022/04/30 12:52:12;;;;;;;14.75;4.95;;;13.40;89.30;;;;;;5071056;28;20512;-41
2022/04/30 12:54:39;;;;;;;9.05;4.60;;;13.30;89.30;;;;;;5061764;28;20084;-43
2022/04/30 12:57:07;;;;;;;9.52;4.72;;;13.30;90.00;;;;;;5062375;28;20098;-42
2022/04/30 12:59:34;;;;;;;8.68;4.65;;;13.30;90.00;;;;;;5060822;28;20139;-43
2022/04/30 13:02:00;;;;;;;7.18;4.78;;;13.30;90.00;;;;;;5058398;28;20057;-42
2022/04/30 13:04:27;;;;;;;8.50;4.00;;;13.30;90.10;;;;;;5067379;28;20053;-43
2022/04/30 13:06:55;;;;;;;7.43;4.07;;;13.40;90.20;;;;;;5064186;28;20476;-42
2022/04/30 13:14:51;;;;;;;8.82;4.28;;;13.30;90.40;;;;;;5063584;28;20048;-42
2022/04/30 13:17:17;;;;;;;9.48;4.50;;;13.30;90.60;;;;;;5059228;28;20049;-43
2022/04/30 13:19:44;;;;;;;8.73;4.40;;;13.30;90.70;;;;;;5062557;28;20378;-42
2022/04/30 13:22:13;;;;;;;6.93;3.90;;;13.30;90.70;;;;;;5070208;28;20052;-42
2022/04/30 13:24:40;;;;;;;11.98;5.10;;;13.40;90.70;;;;;;5070979;28;20330;-44
2022/04/30 13:27:06;;;;;;;10.02;4.57;;;13.40;90.60;;;;;;5062767;28;20131;-44